Time;durP1;ratioP1;P1;durP2;ratioP2;P2;SDS_P1;SDS_P2;PMS_P1;PMS_P2;Temp;Humidity;BMP_temperature;BMP_pressure;BME280_temperature;BME280_humidity;BME280_pressure;Samples;Min_cycle;Max_cycle;Signal;HPM_P1;HPM_P2
2023/10/04 00:00:53;;;;;;;3.92;1.73;;;12.60;99.90;;;;;;4970499;28;20035;-80
2023/10/04 00:03:19;;;;;;;5.20;1.73;;;12.60;99.90;;;;;;4985050;28;20049;-79
2023/10/04 00:05:45;;;;;;;6.82;2.05;;;12.60;99.90;;;;;;4987273;28;20066;-79
2023/10/04 00:08:10;;;;;;;6.80;1.80;;;12.70;99.90;;;;;;4987106;28;20034;-79
2023/10/04 00:10:36;;;;;;;5.43;1.67;;;12.70;99.90;;;;;;4953527;28;20050;-79
2023/10/04 00:13:01;;;;;;;4.65;2.00;;;12.60;99.90;;;;;;4969409;28;20510;-79
2023/10/04 00:15:29;;;;;;;2.50;1.45;;;12.50;99.90;;;;;;4990800;28;20030;-79
2023/10/04 00:17:54;;;;;;;6.18;2.15;;;12.60;99.90;;;;;;4986229;28;20039;-79
2023/10/04 00:20:20;;;;;;;5.68;2.38;;;12.60;99.90;;;;;;4969618;28;20030;-79
2023/10/04 00:22:46;;;;;;;4.85;1.67;;;12.60;99.90;;;;;;4971390;28;20043;-79
2023/10/04 00:25:21;;;;;;;5.82;1.77;;;12.60;99.90;;;;;;4972439;28;20421;-79
2023/10/04 00:27:50;;;;;;;7.85;2.10;;;12.50;99.90;;;;;;4971803;28;20085;-79
2023/10/04 00:30:17;;;;;;;8.55;1.85;;;12.50;99.90;;;;;;4954127;28;21283;-79
2023/10/04 00:32:44;;;;;;;5.20;1.88;;;12.30;99.90;;;;;;4969519;28;20122;-79
2023/10/04 00:35:12;;;;;;;7.45;1.45;;;12.40;99.90;;;;;;4953925;28;20038;-79
2023/10/04 00:37:39;;;;;;;6.10;1.90;;;12.50;99.90;;;;;;4958196;28;20044;-79
2023/10/04 00:40:18;;;;;;;11.70;2.08;;;12.50;99.90;;;;;;4986242;28;20498;-79
2023/10/04 00:42:44;;;;;;;4.75;1.95;;;12.50;99.90;;;;;;4983542;28;20144;-79
2023/10/04 00:45:13;;;;;;;5.60;1.63;;;12.50;99.90;;;;;;4971592;28;20034;-79
2023/10/04 00:47:47;;;;;;;10.73;1.83;;;12.30;99.90;;;;;;4970894;28;20100;-79
2023/10/04 00:50:17;;;;;;;5.05;1.33;;;12.30;99.90;;;;;;4952770;28;20113;-79
2023/10/04 00:52:46;;;;;;;7.72;1.88;;;12.30;99.90;;;;;;4984284;28;20166;-78
2023/10/04 00:55:13;;;;;;;6.88;1.42;;;12.30;99.90;;;;;;4954384;28;20082;-79
2023/10/04 00:57:39;;;;;;;11.68;1.85;;;12.10;99.90;;;;;;4974128;28;20042;-79
2023/10/04 01:00:09;;;;;;;2.67;1.33;;;12.20;99.90;;;;;;4971195;28;20048;-79
2023/10/04 01:02:35;;;;;;;5.93;2.00;;;12.20;99.90;;;;;;4954981;28;20490;-79
2023/10/04 01:05:01;;;;;;;6.90;1.58;;;12.10;99.90;;;;;;4941738;28;20031;-79
2023/10/04 01:07:26;;;;;;;3.30;1.35;;;12.10;99.90;;;;;;4962052;28;20050;-78
2023/10/04 01:09:52;;;;;;;9.65;1.50;;;12.10;99.90;;;;;;4950203;28;20507;-78
2023/10/04 01:12:23;;;;;;;3.13;1.75;;;12.20;99.90;;;;;;4948312;28;20026;-79
2023/10/04 01:14:52;;;;;;;7.70;2.15;;;12.10;99.90;;;;;;4954287;28;20051;-79
2023/10/04 01:17:19;;;;;;;5.97;2.47;;;12.10;99.90;;;;;;4989877;28;20026;-79
2023/10/04 01:19:44;;;;;;;6.78;1.85;;;12.20;99.90;;;;;;4974700;28;20033;-79
2023/10/04 01:22:11;;;;;;;6.18;1.92;;;12.20;99.90;;;;;;4951492;28;20445;-79
2023/10/04 01:24:41;;;;;;;7.05;2.22;;;12.10;99.90;;;;;;4954235;28;20039;-79
2023/10/04 01:27:10;;;;;;;8.15;1.60;;;12.20;99.90;;;;;;4970493;28;20518;-79
2023/10/04 01:29:38;;;;;;;7.70;1.83;;;12.20;99.90;;;;;;4963410;28;20026;-79
2023/10/04 01:32:05;;;;;;;5.47;1.35;;;12.10;99.90;;;;;;4948967;28;20460;-79
2023/10/04 01:34:30;;;;;;;6.78;1.92;;;12.00;99.90;;;;;;4954300;28;20122;-79
2023/10/04 01:36:56;;;;;;;5.47;1.98;;;12.00;99.90;;;;;;4987938;28;20899;-78
2023/10/04 01:39:22;;;;;;;3.63;1.60;;;12.00;99.90;;;;;;4952292;28;20117;-79
2023/10/04 01:41:49;;;;;;;4.63;1.70;;;11.90;99.90;;;;;;4953694;28;20035;-79
2023/10/04 01:44:15;;;;;;;8.02;2.30;;;12.00;99.90;;;;;;4984635;28;20038;-79
2023/10/04 01:46:42;;;;;;;6.40;2.13;;;12.00;99.90;;;;;;4969005;28;20115;-79
2023/10/04 01:49:08;;;;;;;5.13;1.70;;;11.90;99.90;;;;;;4951528;28;20050;-79
2023/10/04 01:51:33;;;;;;;6.43;1.90;;;11.90;99.90;;;;;;4972742;28;20390;-79
2023/10/04 01:54:00;;;;;;;4.07;1.80;;;12.10;99.90;;;;;;4967752;28;20694;-80
2023/10/04 01:56:26;;;;;;;7.25;1.30;;;12.10;99.90;;;;;;4952897;28;20482;-79
2023/10/04 01:58:53;;;;;;;9.07;1.80;;;12.20;99.90;;;;;;4957191;28;20120;-79
2023/10/04 02:01:19;;;;;;;3.05;1.33;;;12.30;99.90;;;;;;4971738;28;20060;-79
2023/10/04 02:03:45;;;;;;;7.25;1.77;;;12.30;99.90;;;;;;4970295;28;20518;-79
2023/10/04 02:06:10;;;;;;;8.23;1.80;;;12.10;99.90;;;;;;4968570;28;20795;-79
2023/10/04 02:08:36;;;;;;;5.82;1.35;;;12.10;99.90;;;;;;4969671;28;20069;-79
2023/10/04 02:11:04;;;;;;;2.22;0.95;;;12.20;99.90;;;;;;4953515;28;20061;-79
2023/10/04 02:13:32;;;;;;;5.10;1.70;;;12.30;99.90;;;;;;4973879;28;20476;-79
2023/10/04 02:15:59;;;;;;;4.20;1.55;;;12.30;99.90;;;;;;4970824;28;20038;-79
2023/10/04 02:18:24;;;;;;;8.43;2.92;;;12.30;99.90;;;;;;4953680;28;20030;-79
2023/10/04 02:20:53;;;;;;;6.93;1.40;;;12.10;99.90;;;;;;4970135;28;20034;-79
2023/10/04 02:23:18;;;;;;;3.97;1.55;;;12.10;99.90;;;;;;4968440;28;21367;-79
2023/10/04 02:25:47;;;;;;;6.03;1.50;;;12.20;99.90;;;;;;4969407;28;20148;-79
2023/10/04 02:28:18;;;;;;;5.15;1.50;;;12.10;99.90;;;;;;4971624;28;20034;-79
2023/10/04 02:30:47;;;;;;;14.68;1.90;;;12.10;99.90;;;;;;4987075;28;20031;-79
2023/10/04 02:33:13;;;;;;;12.32;1.75;;;12.20;99.90;;;;;;4969613;28;20030;-79
2023/10/04 02:35:47;;;;;;;3.65;1.25;;;12.20;99.90;;;;;;4968064;28;20037;-79
2023/10/04 02:38:19;;;;;;;8.50;2.08;;;12.20;99.90;;;;;;4982304;28;20038;-78
2023/10/04 02:40:45;;;;;;;8.52;1.95;;;12.20;99.90;;;;;;4983640;28;20041;-79
2023/10/04 02:43:11;;;;;;;4.13;1.40;;;12.20;99.90;;;;;;4953160;28;20105;-79
2023/10/04 02:45:37;;;;;;;5.82;1.73;;;12.20;99.90;;;;;;4983803;28;20081;-79
2023/10/04 02:48:04;;;;;;;4.78;1.15;;;12.10;99.90;;;;;;4986717;28;20144;-79
2023/10/04 02:50:30;;;;;;;3.97;1.55;;;12.10;99.90;;;;;;4952426;28;20049;-79
2023/10/04 02:52:56;;;;;;;4.20;0.85;;;12.20;99.90;;;;;;4965362;28;20038;-79
2023/10/04 02:55:21;;;;;;;2.97;0.90;;;12.20;99.90;;;;;;4985952;28;20140;-77
2023/10/04 02:57:51;;;;;;;6.03;1.10;;;12.20;99.90;;;;;;4979165;28;20030;-77
2023/10/04 03:00:19;;;;;;;7.15;2.22;;;12.20;99.90;;;;;;4968429;28;20043;-78
2023/10/04 03:02:45;;;;;;;4.35;1.15;;;12.20;99.90;;;;;;4971614;28;20053;-77
2023/10/04 03:05:20;;;;;;;7.70;1.73;;;12.20;99.90;;;;;;4952620;28;20034;-77
2023/10/04 03:07:50;;;;;;;5.82;1.65;;;12.30;99.90;;;;;;4986077;28;20058;-77
2023/10/04 03:10:23;;;;;;;4.63;1.48;;;12.40;99.90;;;;;;4969298;28;20081;-78
2023/10/04 03:12:52;;;;;;;7.63;1.88;;;12.30;99.90;;;;;;4970739;28;20034;-78
2023/10/04 03:15:22;;;;;;;7.57;1.90;;;12.40;99.90;;;;;;4983304;28;20034;-78
2023/10/04 03:17:47;;;;;;;6.53;1.35;;;12.50;99.90;;;;;;4953436;28;20042;-77
2023/10/04 03:20:20;;;;;;;8.80;2.42;;;12.40;99.90;;;;;;4968497;28;20031;-78
2023/10/04 03:22:55;;;;;;;9.82;2.13;;;12.40;99.90;;;;;;4984848;28;20406;-78
2023/10/04 03:25:23;;;;;;;7.77;1.93;;;12.30;99.90;;;;;;4954105;28;20033;-78
2023/10/04 03:27:49;;;;;;;4.43;1.52;;;12.40;99.90;;;;;;4974104;28;20033;-78
2023/10/04 03:30:15;;;;;;;5.57;1.83;;;12.40;99.90;;;;;;4948325;28;20031;-77
2023/10/04 03:32:45;;;;;;;6.80;1.80;;;12.40;99.90;;;;;;4981707;28;20038;-78
2023/10/04 03:35:14;;;;;;;5.35;1.90;;;12.40;99.90;;;;;;4962642;28;20031;-78
2023/10/04 03:37:48;;;;;;;7.07;2.00;;;12.40;99.90;;;;;;4969124;28;20058;-78
2023/10/04 03:40:15;;;;;;;6.95;1.60;;;12.30;99.90;;;;;;4960202;28;20472;-78
2023/10/04 03:42:41;;;;;;;8.57;2.22;;;12.30;99.90;;;;;;4954195;28;20503;-78
2023/10/04 03:45:10;;;;;;;8.70;1.30;;;12.40;99.90;;;;;;4955818;28;20429;-78
2023/10/04 03:47:36;;;;;;;2.45;0.95;;;12.30;99.90;;;;;;4969502;28;20983;-78
2023/10/04 03:50:01;;;;;;;7.28;2.33;;;12.30;99.90;;;;;;4973165;28;20034;-78
2023/10/04 03:52:28;;;;;;;11.35;1.63;;;12.30;99.90;;;;;;4986783;28;20031;-77
2023/10/04 03:54:54;;;;;;;8.63;0.98;;;12.40;99.90;;;;;;4970587;28;20864;-78
2023/10/04 03:57:20;;;;;;;8.63;1.85;;;12.30;99.90;;;;;;4985136;28;20430;-76
2023/10/04 03:59:45;;;;;;;4.53;1.30;;;12.40;99.90;;;;;;4985208;28;20039;-76
2023/10/04 04:02:12;;;;;;;4.22;1.63;;;12.30;99.90;;;;;;4954752;28;20037;-77
2023/10/04 04:04:38;;;;;;;8.10;1.40;;;12.30;99.90;;;;;;4987974;28;20037;-77
2023/10/04 04:07:03;;;;;;;7.78;1.83;;;12.40;99.90;;;;;;4991186;28;20236;-77
2023/10/04 04:09:29;;;;;;;8.38;1.80;;;12.50;99.90;;;;;;4983805;28;20114;-76
2023/10/04 04:11:54;;;;;;;3.15;1.02;;;12.50;99.90;;;;;;4988493;28;20105;-77
2023/10/04 04:14:20;;;;;;;5.43;2.15;;;12.50;99.90;;;;;;4973154;28;20101;-77
2023/10/04 04:16:46;;;;;;;8.38;2.50;;;12.50;99.90;;;;;;4969388;28;20046;-77
2023/10/04 04:19:14;;;;;;;3.80;0.98;;;12.50;99.90;;;;;;4951851;28;20038;-77
2023/10/04 04:21:40;;;;;;;5.63;1.63;;;12.40;99.90;;;;;;4954692;28;20038;-77
2023/10/04 04:24:06;;;;;;;4.90;1.63;;;12.40;99.90;;;;;;4953209;28;20411;-78
2023/10/04 04:26:33;;;;;;;3.90;1.13;;;12.30;99.90;;;;;;4973307;28;20414;-77
2023/10/04 04:28:59;;;;;;;10.70;1.90;;;12.40;99.90;;;;;;4985030;28;20787;-76
2023/10/04 04:31:25;;;;;;;4.88;1.20;;;12.50;99.90;;;;;;4970799;28;20027;-77
2023/10/04 04:33:53;;;;;;;5.38;2.13;;;12.40;99.90;;;;;;4969786;28;20153;-77
2023/10/04 04:36:25;;;;;;;7.20;2.10;;;12.30;99.90;;;;;;4988246;28;20037;-77
2023/10/04 04:38:52;;;;;;;8.02;1.50;;;12.40;99.90;;;;;;4971805;28;20126;-77
2023/10/04 04:41:24;;;;;;;2.53;1.10;;;12.30;99.90;;;;;;4982935;28;20549;-77
2023/10/04 04:43:50;;;;;;;15.75;2.65;;;12.20;99.90;;;;;;4955712;28;20404;-77
2023/10/04 04:46:16;;;;;;;4.45;1.33;;;12.20;99.90;;;;;;4989000;28;20421;-77
2023/10/04 04:48:42;;;;;;;3.78;1.45;;;12.10;99.90;;;;;;4987893;28;20475;-77
2023/10/04 04:51:11;;;;;;;7.53;1.90;;;12.00;99.90;;;;;;4965101;28;20061;-77
2023/10/04 04:53:39;;;;;;;5.70;2.10;;;12.10;99.90;;;;;;4984971;28;20509;-77
2023/10/04 04:56:24;;;;;;;9.23;1.92;;;12.00;99.90;;;;;;4970746;28;20700;-77
2023/10/04 04:58:51;;;;;;;4.63;1.20;;;12.00;99.90;;;;;;4958270;28;20026;-77
2023/10/04 05:01:17;;;;;;;7.07;1.65;;;12.00;99.90;;;;;;4970146;28;20070;-77
2023/10/04 05:03:45;;;;;;;7.75;2.55;;;12.00;99.90;;;;;;4971285;28;20038;-77
2023/10/04 05:06:16;;;;;;;5.05;2.15;;;12.10;99.90;;;;;;4968651;28;20037;-77
2023/10/04 05:08:42;;;;;;;4.15;1.52;;;12.10;99.90;;;;;;4983755;28;20494;-77
2023/10/04 05:11:07;;;;;;;8.10;1.88;;;12.20;99.90;;;;;;4968772;28;20058;-77
2023/10/04 05:13:33;;;;;;;9.75;2.30;;;12.10;99.90;;;;;;4967631;28;20066;-77
2023/10/04 05:15:59;;;;;;;10.55;2.08;;;12.00;99.90;;;;;;4985536;28;20068;-77
2023/10/04 05:18:26;;;;;;;5.05;1.13;;;12.00;99.90;;;;;;4966285;28;20034;-77
2023/10/04 05:20:55;;;;;;;9.93;2.60;;;12.00;99.90;;;;;;4970608;28;20045;-77
2023/10/04 05:23:22;;;;;;;5.32;1.25;;;12.00;99.90;;;;;;4955803;28;20533;-77
2023/10/04 05:25:48;;;;;;;6.55;2.25;;;12.00;99.90;;;;;;4983001;28;20046;-76
2023/10/04 05:28:14;;;;;;;6.07;2.25;;;12.00;99.90;;;;;;4951562;28;20035;-77
2023/10/04 05:30:44;;;;;;;7.63;2.00;;;11.90;99.90;;;;;;4967031;28;20054;-76
2023/10/04 05:33:10;;;;;;;7.78;2.53;;;11.90;99.90;;;;;;4986219;28;20386;-76
2023/10/04 05:35:36;;;;;;;10.23;1.70;;;11.80;99.90;;;;;;4971077;28;20034;-78
2023/10/04 05:38:05;;;;;;;11.38;2.15;;;11.70;99.90;;;;;;4986776;28;20034;-77
2023/10/04 05:40:43;;;;;;;6.78;1.45;;;11.90;99.90;;;;;;4985632;28;20035;-77
2023/10/04 05:43:08;;;;;;;10.75;1.75;;;11.80;99.90;;;;;;4971443;28;20200;-76
2023/10/04 05:45:34;;;;;;;11.48;2.28;;;11.80;99.90;;;;;;4968676;28;20049;-78
2023/10/04 05:48:00;;;;;;;9.20;2.13;;;11.80;99.90;;;;;;4985801;28;20495;-77
2023/10/04 05:50:26;;;;;;;11.02;2.55;;;11.80;99.90;;;;;;4954867;28;20169;-78
2023/10/04 05:52:53;;;;;;;12.93;2.95;;;11.90;99.90;;;;;;4930815;28;20042;-77
2023/10/04 05:55:21;;;;;;;10.77;1.90;;;11.80;99.90;;;;;;4950668;28;20034;-77
2023/10/04 05:57:48;;;;;;;7.75;1.77;;;11.70;99.90;;;;;;4966061;28;20037;-77
2023/10/04 06:00:27;;;;;;;14.65;2.80;;;11.70;99.90;;;;;;4932043;28;20050;-78
2023/10/04 06:03:01;;;;;;;6.13;2.28;;;11.70;99.90;;;;;;4969436;28;20434;-77
2023/10/04 06:05:27;;;;;;;10.75;2.28;;;11.60;99.90;;;;;;4984146;28;20031;-78
2023/10/04 06:07:54;;;;;;;7.97;2.30;;;11.70;99.90;;;;;;4961270;28;20483;-78
2023/10/04 06:10:20;;;;;;;9.80;3.00;;;11.50;99.90;;;;;;4964680;28;20408;-78
2023/10/04 06:12:46;;;;;;;6.47;1.95;;;11.50;99.90;;;;;;4968593;28;20148;-77
2023/10/04 06:15:19;;;;;;;12.30;4.82;;;11.50;99.90;;;;;;4952366;28;20046;-77
2023/10/04 06:17:48;;;;;;;8.43;2.03;;;11.70;99.90;;;;;;4950654;28;20088;-78
2023/10/04 06:20:23;;;;;;;9.55;1.73;;;11.80;99.90;;;;;;4978010;28;20455;-77
2023/10/04 06:22:52;;;;;;;6.55;1.60;;;11.70;99.90;;;;;;4985329;28;20124;-77
2023/10/04 06:25:19;;;;;;;4.47;1.27;;;11.70;99.90;;;;;;4954054;28;20122;-77
2023/10/04 06:27:45;;;;;;;7.03;2.20;;;11.70;99.90;;;;;;4966424;28;20039;-77
2023/10/04 06:30:16;;;;;;;11.98;2.33;;;11.70;99.90;;;;;;4967937;28;20039;-77
2023/10/04 06:32:43;;;;;;;8.25;2.03;;;11.90;99.90;;;;;;4967180;28;20034;-77
2023/10/04 06:35:09;;;;;;;8.00;2.55;;;11.90;99.90;;;;;;4953309;28;20562;-77
2023/10/04 06:37:36;;;;;;;9.50;2.05;;;11.90;99.90;;;;;;4969087;28;20126;-77
2023/10/04 06:40:04;;;;;;;10.18;2.60;;;11.90;99.90;;;;;;4980950;28;20494;-77
2023/10/04 06:42:30;;;;;;;8.02;1.65;;;11.90;99.90;;;;;;4983876;28;20046;-76
2023/10/04 06:44:56;;;;;;;7.22;1.75;;;11.90;99.90;;;;;;4984377;28;20521;-77
2023/10/04 06:47:23;;;;;;;12.85;2.00;;;11.90;99.90;;;;;;4954332;28;20460;-78
2023/10/04 06:49:48;;;;;;;9.45;2.35;;;11.80;99.90;;;;;;4968479;28;20031;-78
2023/10/04 06:52:14;;;;;;;7.22;2.13;;;11.90;99.90;;;;;;4988505;28;20384;-77
2023/10/04 06:54:40;;;;;;;8.55;2.47;;;11.90;99.90;;;;;;4970618;28;20410;-77
2023/10/04 06:57:06;;;;;;;6.47;1.75;;;11.90;99.90;;;;;;4951914;28;20039;-77
2023/10/04 06:59:31;;;;;;;6.97;1.98;;;11.90;99.90;;;;;;4960858;28;20042;-77
2023/10/04 07:01:57;;;;;;;11.85;2.72;;;12.00;99.90;;;;;;4982422;28;20046;-77
2023/10/04 07:04:23;;;;;;;6.43;2.50;;;12.10;99.90;;;;;;4950029;28;20398;-77
2023/10/04 07:06:48;;;;;;;4.60;1.73;;;12.10;99.90;;;;;;4966913;28;20113;-77
2023/10/04 07:09:14;;;;;;;4.72;2.45;;;12.30;99.90;;;;;;4983717;28;20115;-77
2023/10/04 07:11:39;;;;;;;7.22;2.20;;;12.30;99.90;;;;;;4985750;28;20113;-78
2023/10/04 07:14:05;;;;;;;5.25;1.65;;;12.20;99.90;;;;;;4988160;28;20045;-77
2023/10/04 07:16:31;;;;;;;9.05;2.05;;;12.20;99.90;;;;;;4985631;28;20045;-77
2023/10/04 07:18:58;;;;;;;8.38;2.67;;;12.50;99.90;;;;;;4952137;28;20034;-78
2023/10/04 07:21:24;;;;;;;14.52;2.72;;;12.50;99.90;;;;;;4968904;28;20486;-77
2023/10/04 07:23:49;;;;;;;9.32;2.35;;;12.50;99.90;;;;;;4956537;28;20037;-77
2023/10/04 07:26:15;;;;;;;9.93;2.50;;;12.50;99.90;;;;;;4988831;28;20034;-77
2023/10/04 07:28:41;;;;;;;11.48;2.88;;;12.60;99.90;;;;;;4985348;28;20046;-77
2023/10/04 07:31:07;;;;;;;9.45;2.58;;;12.70;99.90;;;;;;4971209;28;20518;-77
2023/10/04 07:33:33;;;;;;;13.18;2.88;;;12.80;99.90;;;;;;4988249;28;20042;-78
2023/10/04 07:35:59;;;;;;;10.63;3.15;;;13.00;99.90;;;;;;4953175;28;20936;-77
2023/10/04 07:38:25;;;;;;;6.53;2.42;;;12.90;99.90;;;;;;4968449;28;20042;-77
2023/10/04 07:40:50;;;;;;;15.90;3.15;;;13.00;99.90;;;;;;4967444;28;20027;-77
2023/10/04 07:43:16;;;;;;;11.35;4.18;;;13.10;99.90;;;;;;4970080;28;20042;-77
2023/10/04 07:45:42;;;;;;;9.98;3.03;;;13.30;99.90;;;;;;4987701;28;20061;-76
2023/10/04 07:48:10;;;;;;;7.78;1.90;;;13.30;99.90;;;;;;4955928;28;20054;-77
2023/10/04 07:50:37;;;;;;;13.55;4.05;;;13.20;99.90;;;;;;4986573;28;20445;-78
2023/10/04 07:53:04;;;;;;;12.55;3.20;;;13.60;99.90;;;;;;4970931;28;20522;-77
2023/10/04 07:55:30;;;;;;;11.85;2.30;;;13.70;99.90;;;;;;4971972;28;20073;-78
2023/10/04 07:57:58;;;;;;;10.77;3.00;;;13.60;99.90;;;;;;4970525;28;20069;-78
2023/10/04 08:00:24;;;;;;;8.50;2.53;;;13.70;99.90;;;;;;4955197;28;20046;-78
2023/10/04 08:02:50;;;;;;;9.55;2.83;;;13.70;99.90;;;;;;4983775;28;20026;-77
2023/10/04 08:05:25;;;;;;;12.23;2.58;;;13.80;99.90;;;;;;4971782;28;20027;-77
2023/10/04 08:07:57;;;;;;;9.68;3.15;;;13.90;99.90;;;;;;4973290;28;20904;-78
2023/10/04 08:10:25;;;;;;;11.13;2.95;;;14.00;99.90;;;;;;4970856;28;20403;-77
2023/10/04 08:12:52;;;;;;;14.18;3.25;;;14.10;99.90;;;;;;4956707;28;20446;-78
2023/10/04 08:15:21;;;;;;;13.95;2.42;;;14.20;99.90;;;;;;4963612;28;20121;-78
2023/10/04 08:17:51;;;;;;;12.77;3.05;;;14.20;99.90;;;;;;4974055;28;20039;-77
2023/10/04 08:20:17;;;;;;;12.25;2.80;;;14.10;99.90;;;;;;4952201;28;20117;-77
2023/10/04 08:22:43;;;;;;;8.25;2.08;;;14.30;99.90;;;;;;4968924;28;20496;-77
2023/10/04 08:25:10;;;;;;;8.63;2.35;;;14.50;99.90;;;;;;4953986;28;20419;-77
2023/10/04 08:27:35;;;;;;;8.13;2.88;;;14.50;99.90;;;;;;4970143;28;20035;-77
2023/10/04 08:30:06;;;;;;;7.88;2.13;;;14.60;99.90;;;;;;4972031;28;20034;-77
2023/10/04 08:32:31;;;;;;;11.88;2.38;;;15.00;99.90;;;;;;4986226;28;20046;-78
2023/10/04 08:34:59;;;;;;;8.80;2.38;;;15.30;99.90;;;;;;4969886;28;20038;-77
2023/10/04 08:37:26;;;;;;;7.70;3.50;;;15.20;99.90;;;;;;4975895;28;20035;-79
2023/10/04 08:39:52;;;;;;;5.82;1.63;;;15.40;99.90;;;;;;4957754;28;20038;-80
2023/10/04 08:42:18;;;;;;;11.48;1.83;;;15.60;99.90;;;;;;4967733;28;20520;-77
2023/10/04 08:44:45;;;;;;;11.27;3.00;;;15.70;99.90;;;;;;4970587;28;20510;-77
2023/10/04 08:47:10;;;;;;;8.75;2.75;;;15.70;99.90;;;;;;4953566;28;20037;-79
2023/10/04 08:49:50;;;;;;;5.97;2.00;;;15.80;99.90;;;;;;4953236;28;20405;-76
2023/10/04 08:52:20;;;;;;;9.40;2.60;;;15.80;99.90;;;;;;4955135;28;20035;-77
2023/10/04 08:54:50;;;;;;;15.68;3.83;;;16.00;99.90;;;;;;4950100;28;20035;-78
2023/10/04 08:57:20;;;;;;;10.30;2.30;;;16.30;99.90;;;;;;4959481;28;20075;-77
2023/10/04 08:59:46;;;;;;;9.90;2.55;;;16.10;99.90;;;;;;4954501;28;20085;-78
2023/10/04 09:02:13;;;;;;;8.73;2.20;;;16.20;99.90;;;;;;4953173;28;20105;-78
2023/10/04 09:04:39;;;;;;;7.85;2.50;;;16.40;99.90;;;;;;4952522;28;20030;-77
2023/10/04 09:07:08;;;;;;;12.77;2.78;;;16.50;99.90;;;;;;4954769;28;20525;-78
2023/10/04 09:09:38;;;;;;;11.15;2.60;;;16.50;99.90;;;;;;4981862;28;20050;-77
2023/10/04 09:12:04;;;;;;;6.43;1.10;;;17.00;99.90;;;;;;4969139;28;20034;-77
2023/10/04 09:14:31;;;;;;;6.75;2.20;;;16.90;99.90;;;;;;4952424;28;20121;-78
2023/10/04 09:17:05;;;;;;;11.25;2.53;;;17.00;99.90;;;;;;4987866;28;20039;-76
2023/10/04 09:19:32;;;;;;;14.85;3.13;;;17.10;99.90;;;;;;4971618;28;20515;-77
2023/10/04 09:22:03;;;;;;;11.77;2.10;;;17.20;99.90;;;;;;4984966;28;20033;-77
2023/10/04 09:24:29;;;;;;;4.88;2.50;;;17.20;99.90;;;;;;4983676;28;20674;-77
2023/10/04 09:26:55;;;;;;;9.85;2.50;;;17.20;99.90;;;;;;4970742;28;20038;-78
2023/10/04 09:29:35;;;;;;;9.32;2.25;;;17.30;99.90;;;;;;4953256;28;20031;-78
2023/10/04 09:32:02;;;;;;;9.43;2.70;;;17.50;99.90;;;;;;4976567;28;20042;-78
2023/10/04 09:34:28;;;;;;;10.93;2.47;;;17.50;99.90;;;;;;4985562;28;20292;-78
2023/10/04 09:36:54;;;;;;;6.88;2.08;;;17.40;99.90;;;;;;4970631;28;20034;-78
2023/10/04 09:39:27;;;;;;;11.75;2.75;;;17.40;99.90;;;;;;4990009;28;20040;-78
2023/10/04 09:41:54;;;;;;;10.27;1.92;;;17.40;99.90;;;;;;4956413;28;20123;-77
2023/10/04 09:44:26;;;;;;;9.98;2.80;;;17.40;99.90;;;;;;4951587;28;20565;-78
2023/10/04 09:47:02;;;;;;;11.50;2.40;;;17.50;99.90;;;;;;4967088;28;20031;-77
2023/10/04 09:49:31;;;;;;;9.85;2.22;;;17.50;99.90;;;;;;4972645;28;20093;-77
2023/10/04 09:51:59;;;;;;;12.57;2.20;;;17.70;99.90;;;;;;4986463;28;20035;-77
2023/10/04 09:54:26;;;;;;;6.57;1.75;;;17.70;99.90;;;;;;4953940;28;20085;-77
2023/10/04 09:56:52;;;;;;;10.95;3.28;;;17.80;99.90;;;;;;4952984;28;20030;-77
2023/10/04 09:59:21;;;;;;;8.68;2.33;;;17.80;99.90;;;;;;4969246;28;20038;-77
2023/10/04 10:01:55;;;;;;;12.13;3.17;;;17.70;99.90;;;;;;4970648;28;20454;-77
2023/10/04 10:04:25;;;;;;;12.90;3.45;;;17.80;99.90;;;;;;4954996;28;20069;-77
2023/10/04 10:07:18;;;;;;;8.38;2.08;;;18.00;99.90;;;;;;4967468;28;20882;-78
2023/10/04 10:10:01;;;;;;;9.82;2.30;;;18.00;99.90;;;;;;4986449;28;20253;-77
2023/10/04 10:12:29;;;;;;;7.03;2.10;;;18.00;99.90;;;;;;4985792;28;20165;-78
2023/10/04 10:14:56;;;;;;;8.52;1.98;;;17.90;99.90;;;;;;4956163;28;20035;-78
2023/10/04 10:17:21;;;;;;;7.55;1.17;;;18.10;99.90;;;;;;4953412;28;20565;-78
2023/10/04 10:19:51;;;;;;;6.22;2.35;;;18.10;99.90;;;;;;4742837;28;10000912;-78
2023/10/04 10:22:19;;;;;;;9.13;2.53;;;18.20;99.90;;;;;;4964991;28;20248;-79
2023/10/04 10:24:56;;;;;;;11.52;2.88;;;18.40;99.90;;;;;;4948614;28;20091;-79
2023/10/04 10:27:23;;;;;;;8.05;2.10;;;18.50;99.90;;;;;;4981563;28;20114;-78
2023/10/04 10:29:49;;;;;;;8.13;2.75;;;18.60;99.90;;;;;;4967309;28;20049;-79
2023/10/04 10:32:17;;;;;;;8.55;2.17;;;18.50;99.90;;;;;;4953447;28;20521;-78
2023/10/04 10:34:43;;;;;;;5.68;1.58;;;18.60;99.90;;;;;;4967410;28;20033;-79
2023/10/04 10:37:32;;;;;;;10.73;2.85;;;18.70;99.90;;;;;;4951792;28;20501;-78
2023/10/04 10:40:04;;;;;;;8.57;2.33;;;18.80;99.90;;;;;;4978966;28;20045;-79
2023/10/04 10:42:30;;;;;;;10.13;2.00;;;18.80;99.90;;;;;;4964848;28;20042;-79
2023/10/04 10:45:28;;;;;;;7.65;2.60;;;18.90;99.90;;;;;;4951500;28;20030;-78
2023/10/04 10:47:56;;;;;;;8.50;2.60;;;19.00;99.90;;;;;;4984499;28;20029;-79
2023/10/04 10:50:32;;;;;;;7.85;2.10;;;18.90;99.90;;;;;;4973512;28;20022;-78
2023/10/04 10:53:10;;;;;;;4.65;1.48;;;19.10;99.60;;;;;;4972210;28;20113;-79
2023/10/04 10:55:36;;;;;;;8.85;2.15;;;18.90;99.30;;;;;;4974076;28;20035;-78
2023/10/04 10:58:03;;;;;;;8.18;2.17;;;19.10;99.80;;;;;;4985625;28;20379;-78
2023/10/04 11:00:32;;;;;;;11.23;2.70;;;19.10;98.90;;;;;;4972610;28;20482;-79
2023/10/04 11:03:01;;;;;;;11.55;2.13;;;19.20;98.70;;;;;;4969101;28;20042;-79
2023/10/04 11:05:26;;;;;;;8.35;1.90;;;19.10;99.10;;;;;;4953531;28;20045;-78
2023/10/04 11:07:54;;;;;;;6.00;2.35;;;19.40;99.60;;;;;;4958677;28;20034;-78
2023/10/04 11:10:20;;;;;;;7.32;2.28;;;19.40;99.50;;;;;;4971609;28;20486;-79
2023/10/04 11:12:47;;;;;;;7.95;2.17;;;19.50;99.50;;;;;;4990191;28;20053;-78
2023/10/04 11:15:13;;;;;;;8.02;2.20;;;19.80;98.20;;;;;;4985445;28;20372;-79
2023/10/04 11:17:39;;;;;;;6.38;1.35;;;19.60;97.80;;;;;;4957701;28;20394;-79
2023/10/04 11:20:09;;;;;;;9.57;2.42;;;19.70;99.40;;;;;;4958429;28;20042;-78
2023/10/04 11:22:36;;;;;;;6.43;1.55;;;20.00;99.20;;;;;;4956373;28;20085;-79
2023/10/04 11:25:02;;;;;;;6.95;1.65;;;20.10;99.70;;;;;;4956486;28;20477;-79
2023/10/04 11:27:28;;;;;;;5.28;1.75;;;20.20;97.80;;;;;;4986173;28;20483;-78
2023/10/04 11:29:53;;;;;;;4.03;1.55;;;20.20;97.30;;;;;;4991055;28;20066;-78
2023/10/04 11:32:19;;;;;;;10.00;2.78;;;20.40;96.80;;;;;;4987859;28;20027;-78
2023/10/04 11:34:45;;;;;;;10.07;2.38;;;20.30;96.40;;;;;;4969338;28;20034;-79
2023/10/04 11:37:13;;;;;;;7.63;1.55;;;20.30;96.70;;;;;;4952469;28;20030;-78
2023/10/04 11:39:39;;;;;;;12.32;2.10;;;20.40;96.10;;;;;;4969505;28;20030;-79
2023/10/04 11:42:14;;;;;;;8.32;1.70;;;20.40;97.60;;;;;;4946822;28;20104;-79
2023/10/04 11:44:41;;;;;;;4.50;1.73;;;20.30;97.90;;;;;;4972276;28;20046;-79
2023/10/04 11:47:08;;;;;;;6.10;2.30;;;20.50;95.20;;;;;;4968860;28;20081;-79
2023/10/04 11:49:38;;;;;;;4.57;1.65;;;20.40;95.60;;;;;;4950872;28;20474;-79
2023/10/04 11:52:06;;;;;;;8.35;2.28;;;20.40;95.30;;;;;;4973870;28;20038;-79
2023/10/04 11:54:38;;;;;;;6.35;1.70;;;20.50;95.10;;;;;;4967214;28;20495;-79
2023/10/04 11:57:05;;;;;;;7.43;1.80;;;20.40;96.20;;;;;;4970564;28;20065;-79
2023/10/04 11:59:31;;;;;;;6.45;2.20;;;20.40;97.10;;;;;;4955509;28;20088;-79
2023/10/04 12:01:57;;;;;;;6.88;2.03;;;20.50;96.10;;;;;;4969212;28;20045;-79
2023/10/04 12:04:23;;;;;;;10.15;2.63;;;20.50;96.30;;;;;;4971800;28;20030;-79
2023/10/04 12:07:02;;;;;;;6.95;2.10;;;20.60;95.30;;;;;;4967435;28;20030;-79
2023/10/04 12:09:30;;;;;;;9.93;2.40;;;20.80;95.20;;;;;;4974075;28;20430;-79
2023/10/04 12:11:57;;;;;;;10.02;3.05;;;20.90;94.40;;;;;;4953409;28;20027;-79
2023/10/04 12:14:22;;;;;;;9.98;2.30;;;20.90;93.80;;;;;;4968207;28;20037;-79
2023/10/04 12:16:48;;;;;;;5.97;1.63;;;20.90;93.30;;;;;;4954217;28;20042;-78
2023/10/04 12:19:14;;;;;;;6.82;1.65;;;20.90;95.00;;;;;;4975147;28;20490;-78
2023/10/04 12:21:43;;;;;;;9.95;2.00;;;21.00;93.50;;;;;;4971543;28;20058;-79
2023/10/04 12:24:12;;;;;;;7.40;2.75;;;21.00;93.30;;;;;;4973343;28;20066;-79
2023/10/04 12:26:37;;;;;;;5.53;2.20;;;20.90;94.30;;;;;;4973991;28;20038;-80
2023/10/04 12:29:04;;;;;;;7.13;1.83;;;21.10;94.60;;;;;;4970127;28;20041;-80
2023/10/04 12:31:30;;;;;;;8.57;2.47;;;21.30;92.70;;;;;;4959667;28;20481;-79
2023/10/04 12:33:55;;;;;;;7.93;3.60;;;21.20;92.80;;;;;;4967621;28;20117;-79
2023/10/04 12:36:25;;;;;;;9.07;2.70;;;21.10;94.40;;;;;;4983140;28;20491;-79
2023/10/04 12:38:51;;;;;;;11.60;2.95;;;21.10;93.10;;;;;;4969025;28;20043;-79
2023/10/04 12:41:18;;;;;;;11.93;3.30;;;21.00;93.40;;;;;;4972984;28;20069;-78
2023/10/04 12:43:44;;;;;;;7.82;3.05;;;21.00;96.10;;;;;;4970447;28;20038;-79
2023/10/04 12:46:10;;;;;;;5.72;2.20;;;21.00;94.40;;;;;;4962423;28;20046;-79
2023/10/04 12:48:35;;;;;;;5.13;2.13;;;21.00;94.70;;;;;;4955479;28;20029;-79